createdAt,value
2019-01-08T00:01:56.612Z,9.13
2019-01-08T00:04:38.836Z,8.37
2019-01-08T00:07:20.990Z,8.10
2019-01-08T00:10:03.305Z,8.53
2019-01-08T00:12:45.601Z,8.30
2019-01-08T00:15:27.104Z,8.27
2019-01-08T00:18:09.281Z,8.13
2019-01-08T00:20:51.584Z,8.60
2019-01-08T00:23:33.785Z,9.03
2019-01-08T00:26:15.269Z,8.10
2019-01-08T00:28:57.343Z,8.43
2019-01-08T00:31:39.564Z,8.20
2019-01-08T00:34:21.600Z,8.20
2019-01-08T00:37:03.209Z,8.23
2019-01-08T00:39:45.393Z,7.50
2019-01-08T00:42:27.225Z,7.93
2019-01-08T00:45:08.688Z,7.43
2019-01-08T00:47:50.954Z,7.80
2019-01-08T00:50:32.586Z,7.77
2019-01-08T00:53:14.728Z,6.70
2019-01-08T00:55:57.091Z,7.10
2019-01-08T00:58:38.965Z,6.97
2019-01-08T01:01:20.812Z,7.13
2019-01-08T01:04:03.266Z,6.73
2019-01-08T01:06:44.812Z,6.40
2019-01-08T01:09:27.150Z,6.90
2019-01-08T01:12:08.869Z,6.83
2019-01-08T01:14:50.272Z,6.77
2019-01-08T01:17:34.431Z,6.90
2019-01-08T01:20:15.905Z,6.17
2019-01-08T01:22:58.261Z,6.33
2019-01-08T01:25:40.294Z,6.63
2019-01-08T01:28:22.749Z,6.87
2019-01-08T01:31:04.682Z,6.10
2019-01-08T01:33:46.864Z,6.17
2019-01-08T01:36:28.533Z,6.33
2019-01-08T01:39:10.513Z,6.77
2019-01-08T01:41:50.964Z,6.13
2019-01-08T01:44:40.241Z,5.30
2019-01-08T01:47:29.641Z,5.90
2019-01-08T01:50:18.910Z,5.70
2019-01-08T01:53:08.163Z,5.53
2019-01-08T01:55:57.430Z,5.20
2019-01-08T01:58:46.987Z,5.20
2019-01-08T02:01:36.317Z,6.03
2019-01-08T02:04:25.718Z,5.87
2019-01-08T02:07:15.074Z,5.50
2019-01-08T02:10:04.577Z,6.33
2019-01-08T02:12:53.864Z,6.10
2019-01-08T02:15:43.182Z,6.03
2019-01-08T02:18:32.512Z,5.37
2019-01-08T02:21:21.835Z,5.43
2019-01-08T02:24:11.092Z,6.30
2019-01-08T02:27:00.384Z,5.33
2019-01-08T02:29:49.640Z,5.80
2019-01-08T02:32:38.893Z,5.97
2019-01-08T02:35:28.158Z,5.57
2019-01-08T02:38:17.398Z,5.67
2019-01-08T02:41:26.231Z,5.67
2019-01-08T02:44:15.573Z,5.63
2019-01-08T02:47:04.893Z,5.90
2019-01-08T02:49:46.744Z,5.00
2019-01-08T02:52:29.076Z,5.43
2019-01-08T02:55:11.451Z,4.97
2019-01-08T02:57:53.533Z,3.80
2019-01-08T03:00:35.733Z,3.70
2019-01-08T03:03:17.312Z,3.20
2019-01-08T03:05:59.781Z,3.30
2019-01-08T03:08:41.764Z,3.07
2019-01-08T03:11:24.014Z,2.93
2019-01-08T03:14:05.976Z,2.90
2019-01-08T03:16:48.392Z,2.83
2019-01-08T03:19:30.609Z,2.37
2019-01-08T03:22:10.940Z,2.50
2019-01-08T03:25:00.302Z,2.40
2019-01-08T03:27:49.628Z,2.33
2019-01-08T03:30:38.979Z,2.23
2019-01-08T03:33:28.286Z,2.20
2019-01-08T03:36:10.533Z,1.93
2019-01-08T03:38:52.530Z,2.10
2019-01-08T03:41:34.077Z,1.80
2019-01-08T03:44:15.605Z,2.10
2019-01-08T03:46:57.109Z,1.60
2019-01-08T03:49:39.386Z,1.60
2019-01-08T03:52:20.996Z,2.00
2019-01-08T03:55:02.590Z,1.63
2019-01-08T03:57:44.553Z,1.80
2019-01-08T04:00:26.779Z,1.77
2019-01-08T04:03:08.256Z,1.37
2019-01-08T04:05:50.010Z,1.23
2019-01-08T04:08:32.019Z,1.27
2019-01-08T04:11:13.951Z,1.17
2019-01-08T04:13:56.040Z,1.30
2019-01-08T04:16:38.519Z,1.27
2019-01-08T04:19:20.297Z,1.13
2019-01-08T04:22:02.330Z,1.30
2019-01-08T04:24:44.201Z,1.00
2019-01-08T04:27:26.417Z,0.80
2019-01-08T04:30:08.167Z,1.10
2019-01-08T04:32:49.737Z,0.97
2019-01-08T04:35:31.776Z,1.10
2019-01-08T04:38:14.126Z,1.00
2019-01-08T04:40:55.541Z,1.20
2019-01-08T04:43:37.914Z,0.90
2019-01-08T04:46:20.333Z,1.20
2019-01-08T04:49:02.353Z,1.10
2019-01-08T04:51:44.667Z,1.10
2019-01-08T04:54:27.065Z,1.10
2019-01-08T04:57:08.884Z,1.20
2019-01-08T04:59:58.766Z,1.20
2019-01-08T05:02:34.889Z,1.20
2019-01-08T05:05:16.860Z,1.20
2019-01-08T05:07:58.516Z,1.30
2019-01-08T05:10:40.784Z,1.07
2019-01-08T05:13:22.296Z,1.33
2019-01-08T05:16:04.298Z,1.50
2019-01-08T05:18:46.048Z,1.40
2019-01-08T05:21:28.309Z,1.23
2019-01-08T05:24:10.353Z,1.10
2019-01-08T05:26:52.225Z,1.27
2019-01-08T05:29:34.113Z,1.27
2019-01-08T05:32:16.243Z,1.73
2019-01-08T05:34:58.301Z,1.40
2019-01-08T05:37:40.044Z,1.40
2019-01-08T05:40:20.441Z,1.27
2019-01-08T05:43:09.781Z,1.43
2019-01-08T05:45:59.049Z,1.40
2019-01-08T05:48:48.444Z,1.53
2019-01-08T05:51:30.403Z,1.47
2019-01-08T05:54:12.200Z,1.47
2019-01-08T05:56:54.080Z,1.40
2019-01-08T05:59:36.294Z,1.43
2019-01-08T06:02:18.552Z,1.30
2019-01-08T06:05:00.273Z,1.60
2019-01-08T06:07:42.527Z,1.67
2019-01-08T06:10:24.502Z,1.73
2019-01-08T06:13:06.194Z,1.53
2019-01-08T06:15:48.117Z,1.60
2019-01-08T06:18:29.664Z,1.57
2019-01-08T06:21:12.001Z,1.87
2019-01-08T06:23:53.627Z,1.60
2019-01-08T06:26:35.870Z,1.30
2019-01-08T06:29:18.207Z,2.07
2019-01-08T06:32:00.533Z,2.13
2019-01-08T06:34:42.683Z,1.83
2019-01-08T06:37:23.036Z,1.77
2019-01-08T06:40:12.297Z,1.60
2019-01-08T06:43:01.537Z,1.70
2019-01-08T06:45:50.808Z,1.50
2019-01-08T06:48:40.081Z,1.97
2019-01-08T06:51:29.419Z,1.40
2019-01-08T06:54:18.666Z,1.67
2019-01-08T06:57:07.915Z,1.63
2019-01-08T06:59:57.229Z,1.60
2019-01-08T07:02:46.566Z,1.70
2019-01-08T07:05:35.853Z,1.60
2019-01-08T07:08:25.100Z,1.40
2019-01-08T07:11:14.878Z,1.40
2019-01-08T07:14:04.193Z,1.30
2019-01-08T07:16:53.538Z,2.20
2019-01-08T07:19:42.784Z,1.60
2019-01-08T07:22:32.121Z,1.40
2019-01-08T07:25:21.389Z,1.70
2019-01-08T07:28:03.297Z,1.37
2019-01-08T07:30:45.176Z,1.60
2019-01-08T07:33:27.221Z,1.40
2019-01-08T07:36:09.712Z,1.60
2019-01-08T07:38:51.960Z,1.50
2019-01-08T07:41:33.437Z,1.63
2019-01-08T07:44:15.800Z,1.60
2019-01-08T07:46:58.236Z,1.70
2019-01-08T07:49:40.286Z,2.00
2019-01-08T07:52:22.231Z,2.10
2019-01-08T07:55:04.010Z,1.60
2019-01-08T07:57:46.119Z,1.73
2019-01-08T08:00:28.065Z,1.50
2019-01-08T08:03:09.986Z,1.63
2019-01-08T08:05:52.184Z,1.57
2019-01-08T08:08:34.377Z,1.90
2019-01-08T08:11:16.062Z,1.90
2019-01-08T08:13:58.504Z,1.93
2019-01-08T08:20:13.434Z,1.95
2019-01-08T08:22:57.705Z,2.10
2019-01-08T08:25:39.346Z,1.70
2019-01-08T08:28:21.422Z,1.43
2019-01-08T08:31:03.033Z,1.90
2019-01-08T08:33:45.036Z,1.57
2019-01-08T08:36:26.761Z,1.73
2019-01-08T08:39:08.618Z,1.70
2019-01-08T08:41:50.715Z,6.10
2019-01-08T08:44:34.386Z,1.80
2019-01-08T08:47:16.348Z,1.70
2019-01-08T08:49:57.885Z,2.10
2019-01-08T08:52:40.231Z,3.47
2019-01-08T08:55:22.376Z,2.37
2019-01-08T08:58:04.382Z,1.50
2019-01-08T09:00:46.513Z,1.30
2019-01-08T09:03:28.521Z,1.20
2019-01-08T09:06:10.525Z,3.33
2019-01-08T09:08:52.091Z,1.90
2019-01-08T09:11:33.813Z,1.90
2019-01-08T09:14:15.538Z,1.77
2019-01-08T09:16:57.567Z,1.70
2019-01-08T09:19:39.625Z,1.63
2019-01-08T09:22:21.734Z,2.00
2019-01-08T09:25:03.674Z,2.00
2019-01-08T09:27:33.970Z,1.83
2019-01-08T09:30:23.330Z,1.77
2019-01-08T09:33:12.717Z,1.80
2019-01-08T09:36:01.984Z,1.70
2019-01-08T09:38:43.785Z,1.60
2019-01-08T09:41:25.676Z,1.60
2019-01-08T09:44:07.833Z,2.10
2019-01-08T09:46:50.067Z,2.20
2019-01-08T09:49:32.145Z,2.13
2019-01-08T09:52:14.405Z,2.00
2019-01-08T09:54:56.749Z,2.13
2019-01-08T09:57:39.140Z,2.23
2019-01-08T10:00:20.651Z,1.83
2019-01-08T10:03:02.634Z,2.60
2019-01-08T10:05:44.675Z,2.07
2019-01-08T10:08:26.798Z,2.43
2019-01-08T10:11:08.723Z,6.07
2019-01-08T10:13:50.701Z,2.60
2019-01-08T10:16:32.385Z,2.30
2019-01-08T10:19:14.706Z,2.37
2019-01-08T10:21:56.482Z,2.17
2019-01-08T10:24:38.729Z,4.03
2019-01-08T10:27:20.915Z,2.53
2019-01-08T10:30:02.826Z,2.57
2019-01-08T10:32:47.689Z,2.60
2019-01-08T10:35:29.672Z,2.57
2019-01-08T10:38:11.678Z,2.60
2019-01-08T10:40:53.539Z,2.80
2019-01-08T10:43:35.637Z,2.00
2019-01-08T10:46:17.597Z,2.27
2019-01-08T10:49:00.185Z,2.70
2019-01-08T10:51:41.925Z,6.73
2019-01-08T10:54:24.320Z,2.47
2019-01-08T10:57:06.140Z,2.00
2019-01-08T10:59:47.800Z,2.60
2019-01-08T11:02:30.093Z,1.83
2019-01-08T11:05:12.328Z,2.83
2019-01-08T11:07:54.369Z,2.13
2019-01-08T11:10:36.449Z,3.30
2019-01-08T11:13:06.672Z,2.20
2019-01-08T11:15:55.980Z,1.87
2019-01-08T11:18:45.382Z,1.90
2019-01-08T11:21:34.768Z,2.13
2019-01-08T11:24:24.116Z,2.10
2019-01-08T11:27:06.132Z,2.17
2019-01-08T11:29:48.476Z,2.20
2019-01-08T11:32:30.997Z,3.50
2019-01-08T11:35:13.361Z,2.60
2019-01-08T11:37:55.697Z,2.10
2019-01-08T11:40:37.443Z,2.00
2019-01-08T11:43:19.418Z,2.00
2019-01-08T11:46:01.397Z,2.23
2019-01-08T11:48:43.669Z,3.00
2019-01-08T11:51:27.633Z,2.63
2019-01-08T11:54:09.964Z,2.70
2019-01-08T11:56:51.841Z,2.60
2019-01-08T11:59:33.998Z,2.40
2019-01-08T12:02:15.546Z,2.80
2019-01-08T12:04:57.498Z,2.00
2019-01-08T12:07:39.476Z,1.90
2019-01-08T12:10:21.119Z,3.60
2019-01-08T12:13:03.601Z,3.20
2019-01-08T12:15:47.353Z,1.93
2019-01-08T12:18:29.624Z,1.60
2019-01-08T12:21:11.367Z,1.57
2019-01-08T12:23:53.037Z,1.37
2019-01-08T12:26:35.437Z,1.53
2019-01-08T12:29:17.660Z,1.77
2019-01-08T12:32:06.054Z,2.03
2019-01-08T12:34:43.180Z,2.03
2019-01-08T12:37:28.265Z,1.80
2019-01-08T12:40:10.416Z,1.37
2019-01-08T12:42:52.278Z,2.13
2019-01-08T12:45:34.084Z,1.83
2019-01-08T12:48:16.354Z,1.93
2019-01-08T12:53:40.986Z,2.10
2019-01-08T12:56:23.303Z,1.53
2019-01-08T12:59:05.313Z,1.80
2019-01-08T13:01:46.954Z,1.90
2019-01-08T13:04:29.017Z,2.27
2019-01-08T13:07:11.030Z,2.13
2019-01-08T13:09:51.406Z,1.90
2019-01-08T13:12:40.688Z,2.03
2019-01-08T13:18:29.385Z,2.03
2019-01-08T13:21:18.684Z,2.10
2019-01-08T13:24:08.157Z,1.63
2019-01-08T13:26:57.553Z,1.70
2019-01-08T13:29:46.949Z,1.80
2019-01-08T13:32:36.269Z,1.70
2019-01-08T13:35:25.574Z,2.10
2019-01-08T13:38:14.925Z,1.83
2019-01-08T13:41:04.224Z,2.23
2019-01-08T13:43:53.570Z,1.93
2019-01-08T13:46:42.933Z,2.00
2019-01-08T13:49:32.209Z,2.43
2019-01-08T13:52:14.624Z,5.57
2019-01-08T13:54:56.846Z,2.23
2019-01-08T13:57:38.412Z,2.00
2019-01-08T14:00:20.606Z,2.10
2019-01-08T14:03:02.772Z,2.00
2019-01-08T14:05:44.745Z,2.07
2019-01-08T14:08:26.898Z,1.67
2019-01-08T14:11:08.705Z,1.70
2019-01-08T14:13:50.684Z,2.60
2019-01-08T14:16:32.374Z,2.70
2019-01-08T14:19:14.493Z,2.00
2019-01-08T14:21:56.451Z,2.17
2019-01-08T14:24:38.189Z,2.10
2019-01-08T14:27:20.653Z,2.20
2019-01-08T14:30:02.739Z,2.17
2019-01-08T14:32:44.971Z,2.07
2019-01-08T14:35:27.201Z,1.60
2019-01-08T14:38:09.506Z,1.70
2019-01-08T14:40:51.537Z,1.67
2019-01-08T14:43:33.232Z,1.80
2019-01-08T14:46:15.458Z,1.40
2019-01-08T14:48:57.330Z,1.77
2019-01-08T14:51:39.220Z,2.07
2019-01-08T14:54:21.214Z,2.27
2019-01-08T14:57:03.120Z,2.40
2019-01-08T14:59:45.021Z,1.87
2019-01-08T15:02:26.844Z,1.50
2019-01-08T15:05:08.837Z,1.60
2019-01-08T15:07:51.049Z,1.87
2019-01-08T15:10:32.805Z,1.50
2019-01-08T15:13:14.800Z,1.77
2019-01-08T15:15:56.956Z,1.70
2019-01-08T15:18:38.840Z,1.40
2019-01-08T15:21:20.662Z,1.57
2019-01-08T15:24:03.155Z,1.40
2019-01-08T15:26:44.666Z,1.90
2019-01-08T15:29:26.973Z,1.50
2019-01-08T15:32:09.037Z,2.07
2019-01-08T15:34:51.071Z,1.80
2019-01-08T15:37:32.994Z,1.73
2019-01-08T15:40:15.099Z,1.60
2019-01-08T15:42:57.520Z,1.70
2019-01-08T15:45:39.574Z,1.40
2019-01-08T15:48:21.668Z,1.60
2019-01-08T15:51:03.624Z,1.67
2019-01-08T15:53:46.087Z,1.83
2019-01-08T15:56:28.198Z,1.70
2019-01-08T15:59:10.031Z,1.90
2019-01-08T16:01:52.165Z,1.90
2019-01-08T16:04:34.263Z,1.90
2019-01-08T16:07:16.234Z,1.83
2019-01-08T16:09:58.377Z,1.90
2019-01-08T16:12:40.821Z,2.10
2019-01-08T16:15:22.527Z,1.70
2019-01-08T16:18:04.904Z,1.77
2019-01-08T16:20:47.206Z,1.97
2019-01-08T16:23:29.718Z,2.07
2019-01-08T16:26:11.995Z,2.00
2019-01-08T16:28:53.789Z,1.70
2019-01-08T16:31:35.601Z,2.40
2019-01-08T16:34:17.528Z,1.97
2019-01-08T16:36:59.574Z,2.00
2019-01-08T16:39:41.780Z,1.70
2019-01-08T16:42:23.757Z,2.00
2019-01-08T16:45:05.265Z,2.50
2019-01-08T16:47:47.381Z,1.40
2019-01-08T16:50:29.065Z,1.57
2019-01-08T16:53:11.101Z,2.10
2019-01-08T16:55:52.775Z,1.40
2019-01-08T16:58:34.748Z,1.90
2019-01-08T17:01:17.269Z,1.63
2019-01-08T17:03:59.183Z,1.60
2019-01-08T17:06:41.241Z,2.10
2019-01-08T17:09:22.817Z,2.20
2019-01-08T17:12:05.216Z,1.60
2019-01-08T17:14:47.393Z,1.80
2019-01-08T17:17:29.139Z,1.60
2019-01-08T17:20:11.282Z,1.50
2019-01-08T17:22:53.492Z,1.93
2019-01-08T17:25:35.309Z,1.90
2019-01-08T17:28:17.852Z,2.50
2019-01-08T17:31:00.076Z,2.00
2019-01-08T17:33:42.286Z,1.77
2019-01-08T17:36:23.773Z,1.80
2019-01-08T17:39:06.145Z,1.83
2019-01-08T17:44:30.577Z,1.50
2019-01-08T17:47:12.771Z,2.00
2019-01-08T17:49:54.506Z,2.00
2019-01-08T17:52:36.517Z,1.73
2019-01-08T17:55:18.473Z,1.93
2019-01-08T17:58:00.373Z,1.93
2019-01-08T18:00:42.156Z,2.17
2019-01-08T18:03:24.016Z,1.83
2019-01-08T18:06:06.231Z,1.77
2019-01-08T18:08:48.430Z,1.97
2019-01-08T18:11:30.659Z,2.13
2019-01-08T18:14:12.480Z,2.10
2019-01-08T18:16:54.714Z,1.80
2019-01-08T18:19:36.642Z,1.80
2019-01-08T18:22:18.490Z,1.93
2019-01-08T18:25:00.464Z,2.43
2019-01-08T18:27:42.605Z,1.90
2019-01-08T18:30:24.860Z,2.07
2019-01-08T18:33:06.738Z,2.27
2019-01-08T18:35:49.159Z,3.03
2019-01-08T18:38:30.693Z,2.93
2019-01-08T18:41:12.357Z,3.77
2019-01-08T18:43:54.645Z,5.57
2019-01-08T18:46:36.624Z,2.90
2019-01-08T18:49:18.733Z,2.20
2019-01-08T18:52:00.770Z,3.37
2019-01-08T18:54:42.632Z,2.80
2019-01-08T18:57:24.648Z,2.00
2019-01-08T19:00:06.549Z,1.90
2019-01-08T19:02:48.785Z,2.23
2019-01-08T19:05:30.601Z,2.10
2019-01-08T19:08:12.820Z,2.33
2019-01-08T19:10:55.229Z,2.00
2019-01-08T19:13:37.770Z,1.90
2019-01-08T19:16:19.817Z,1.63
2019-01-08T19:19:01.638Z,1.57
2019-01-08T19:21:43.432Z,1.73
2019-01-08T19:24:25.163Z,1.80
2019-01-08T19:27:06.704Z,2.07
2019-01-08T19:29:49.090Z,1.73
2019-01-08T19:32:31.323Z,2.30
2019-01-08T19:35:13.673Z,2.03
2019-01-08T19:37:55.790Z,2.60
2019-01-08T19:40:37.901Z,1.87
2019-01-08T19:43:19.755Z,1.70
2019-01-08T19:46:02.085Z,1.73
2019-01-08T19:48:44.033Z,2.00
2019-01-08T19:51:26.515Z,1.50
2019-01-08T19:54:08.709Z,1.60
2019-01-08T19:56:51.249Z,2.00
2019-01-08T19:59:33.542Z,1.73
2019-01-08T20:02:16.081Z,2.40
2019-01-08T20:04:58.345Z,2.30
2019-01-08T20:07:39.860Z,1.33
2019-01-08T20:10:22.158Z,1.90
2019-01-08T20:13:04.134Z,1.80
2019-01-08T20:15:46.261Z,2.00
2019-01-08T20:18:28.352Z,1.73
2019-01-08T20:21:10.519Z,1.60
2019-01-08T20:23:54.459Z,1.37
2019-01-08T20:26:36.328Z,1.80
2019-01-08T20:29:18.106Z,1.93
2019-01-08T20:32:00.127Z,2.40
2019-01-08T20:34:41.742Z,1.67
2019-01-08T20:37:23.861Z,1.83
2019-01-08T20:40:06.495Z,1.30
2019-01-08T20:42:48.287Z,1.87
2019-01-08T20:45:30.613Z,1.60
2019-01-08T20:48:12.708Z,1.73
2019-01-08T20:50:54.752Z,2.03
2019-01-08T20:53:36.592Z,1.57
2019-01-08T20:56:18.873Z,1.90
2019-01-08T20:59:01.098Z,1.90
2019-01-08T21:01:42.797Z,1.87
2019-01-08T21:04:25.322Z,1.50
2019-01-08T21:07:07.534Z,1.50
2019-01-08T21:09:49.354Z,1.70
2019-01-08T21:12:31.754Z,1.40
2019-01-08T21:15:13.772Z,1.60
2019-01-08T21:17:55.851Z,1.77
2019-01-08T21:20:37.706Z,1.30
2019-01-08T21:23:19.796Z,1.60
2019-01-08T21:26:01.605Z,1.50
2019-01-08T21:28:43.416Z,1.83
2019-01-08T21:31:25.816Z,1.27
2019-01-08T21:34:08.071Z,1.37
2019-01-08T21:36:50.465Z,1.73
2019-01-08T21:39:32.042Z,1.50
2019-01-08T21:42:13.997Z,1.77
2019-01-08T21:47:56.188Z,2.03
2019-01-08T21:50:37.968Z,1.73
2019-01-08T21:53:19.738Z,1.77
2019-01-08T21:56:02.218Z,2.07
2019-01-08T21:58:44.470Z,1.50
2019-01-08T22:01:26.985Z,1.87
2019-01-08T22:04:08.797Z,1.93
2019-01-08T22:06:50.362Z,1.70
2019-01-08T22:09:32.542Z,1.70
2019-01-08T22:12:14.224Z,2.27
2019-01-08T22:14:56.413Z,1.80
2019-01-08T22:17:38.329Z,1.70
2019-01-08T22:20:22.726Z,1.40
2019-01-08T22:23:05.201Z,1.90
2019-01-08T22:25:47.363Z,1.20
2019-01-08T22:28:29.619Z,1.97
2019-01-08T22:31:11.801Z,1.33
2019-01-08T22:33:53.622Z,1.70
2019-01-08T22:36:35.203Z,1.70
2019-01-08T22:39:17.354Z,1.30
2019-01-08T22:41:59.489Z,1.70
2019-01-08T22:44:41.962Z,1.90
2019-01-08T22:47:24.134Z,1.50
2019-01-08T22:50:06.005Z,1.43
2019-01-08T22:52:47.937Z,2.10
2019-01-08T22:55:30.350Z,1.77
2019-01-08T22:58:11.971Z,1.50
2019-01-08T23:01:13.261Z,1.60
2019-01-08T23:03:55.744Z,2.10
2019-01-08T23:06:37.558Z,1.33
2019-01-08T23:09:19.813Z,1.50
2019-01-08T23:12:01.939Z,2.00
2019-01-08T23:14:43.985Z,1.33
2019-01-08T23:17:25.970Z,2.00
2019-01-08T23:20:06.564Z,2.00
2019-01-08T23:22:55.866Z,1.40
2019-01-08T23:25:44.669Z,1.67
2019-01-08T23:28:33.877Z,1.53
2019-01-08T23:31:23.216Z,1.57
2019-01-08T23:34:12.580Z,1.27
2019-01-08T23:37:01.871Z,1.70
2019-01-08T23:39:51.151Z,1.80
2019-01-08T23:42:40.501Z,1.70
2019-01-08T23:45:29.765Z,1.77
2019-01-08T23:48:19.093Z,1.83
2019-01-08T23:51:08.453Z,1.40
2019-01-08T23:53:58.163Z,1.40
2019-01-08T23:56:47.908Z,1.37
2019-01-08T23:59:37.165Z,1.43
